Time;durP1;ratioP1;P1;durP2;ratioP2;P2;SDS_P1;SDS_P2;PMS_P1;PMS_P2;Temp;Humidity;BMP_temperature;BMP_pressure;BME280_temperature;BME280_humidity;BME280_pressure;Samples;Min_cycle;Max_cycle;Signal;HPM_P1;HPM_P2
2021/07/28 00:01:31;;;;;;;10.23;9.20;;;;;;;;;;5030794;28;20493;-46
2021/07/28 00:03:57;;;;;;;8.70;7.90;;;;;;;;;;5034255;28;20556;-46
2021/07/28 00:06:23;;;;;;;12.73;8.67;;;;;;;;;;5034405;28;20372;-47
2021/07/28 00:08:50;;;;;;;13.83;7.90;;;;;;;;;;5034322;28;20415;-46
2021/07/28 00:11:17;;;;;;;9.37;8.37;;;;;;;;;;5033922;28;20484;-46
2021/07/28 00:13:44;;;;;;;9.23;8.23;;;;;;;;;;5034177;28;20500;-48
2021/07/28 00:16:14;;;;;;;10.43;8.70;;;;;;;;;;5034443;28;20440;-49
2021/07/28 00:18:46;;;;;;;9.17;8.27;;;;;;;;;;5034288;28;20464;-48
2021/07/28 00:23:57;;;;;;;9.00;8.10;;;;;;;;;;5033994;28;20955;-48
2021/07/28 00:26:23;;;;;;;10.13;7.60;;;;;;;;;;5034092;28;20371;-48
2021/07/28 00:28:49;;;;;;;10.97;8.30;;;;;;;;;;5033929;28;20433;-48
2021/07/28 00:31:15;;;;;;;10.53;7.80;;;;;;;;;;5033674;28;20554;-48
2021/07/28 00:33:41;;;;;;;10.73;8.00;;;;;;;;;;5033925;28;20407;-48
2021/07/28 00:36:07;;;;;;;8.63;7.80;;;;;;;;;;5033951;28;20411;-48
2021/07/28 00:38:33;;;;;;;10.23;7.60;;;;;;;;;;5034293;28;20394;-48
2021/07/28 00:40:59;;;;;;;9.40;7.67;;;;;;;;;;5033783;28;20414;-48
2021/07/28 00:43:25;;;;;;;16.47;8.97;;;;;;;;;;5033823;28;20435;-48
2021/07/28 00:45:51;;;;;;;11.07;8.53;;;;;;;;;;5034307;28;20375;-48
2021/07/28 00:48:17;;;;;;;15.43;9.07;;;;;;;;;;5033865;28;20904;-48
2021/07/28 00:50:44;;;;;;;16.93;9.47;;;;;;;;;;5033468;28;20447;-48
2021/07/28 00:53:19;;;;;;;8.70;7.80;;;;;;;;;;5033604;28;20465;-48
2021/07/28 00:55:52;;;;;;;9.17;8.27;;;;;;;;;;5033666;28;20409;-48
2021/07/28 00:58:18;;;;;;;11.30;7.70;;;;;;;;;;5033449;28;20393;-48
2021/07/28 01:00:45;;;;;;;9.23;7.53;;;;;;;;;;5032883;28;20800;-48
2021/07/28 01:03:11;;;;;;;11.93;7.70;;;;;;;;;;5032739;28;20441;-51
2021/07/28 01:05:37;;;;;;;10.07;7.33;;;;;;;;;;5032634;28;20450;-48
2021/07/28 01:08:03;;;;;;;10.40;7.50;;;;;;;;;;5033283;28;20932;-48
2021/07/28 01:10:30;;;;;;;9.10;7.97;;;;;;;;;;5033016;28;20423;-48
2021/07/28 01:12:56;;;;;;;8.20;7.40;;;;;;;;;;5032557;28;20466;-48
2021/07/28 01:15:40;;;;;;;8.57;7.70;;;;;;;;;;5032884;28;20513;-48
2021/07/28 01:18:08;;;;;;;15.67;7.10;;;;;;;;;;5033061;28;20421;-48
2021/07/28 01:20:44;;;;;;;8.33;6.50;;;;;;;;;;5032820;28;20402;-48
2021/07/28 01:23:20;;;;;;;11.90;7.47;;;;;;;;;;5032970;28;20545;-48
2021/07/28 01:25:46;;;;;;;8.50;7.40;;;;;;;;;;5033314;28;20375;-49
2021/07/28 01:28:13;;;;;;;10.10;7.00;;;;;;;;;;5032859;28;20401;-48
2021/07/28 01:30:39;;;;;;;7.80;7.10;;;;;;;;;;5032324;28;20512;-49
2021/07/28 01:33:05;;;;;;;9.37;7.77;;;;;;;;;;5032722;28;20437;-50
2021/07/28 01:35:32;;;;;;;10.40;8.57;;;;;;;;;;5032744;28;20386;-49
2021/07/28 01:37:58;;;;;;;10.70;9.03;;;;;;;;;;5032874;28;20401;-48
2021/07/28 01:40:24;;;;;;;8.73;7.70;;;;;;;;;;5032385;28;20424;-48
2021/07/28 01:42:50;;;;;;;8.77;7.87;;;;;;;;;;5032463;28;20736;-50
2021/07/28 01:45:17;;;;;;;11.20;8.03;;;;;;;;;;5032966;28;20388;-48
2021/07/28 01:47:44;;;;;;;10.30;7.70;;;;;;;;;;5032677;28;20366;-48
2021/07/28 01:50:10;;;;;;;8.30;7.50;;;;;;;;;;5032225;28;20755;-48
2021/07/28 01:52:41;;;;;;;11.13;8.13;;;;;;;;;;5032378;28;20758;-48
2021/07/28 01:55:07;;;;;;;12.27;7.87;;;;;;;;;;5032428;28;20408;-49
2021/07/28 01:57:34;;;;;;;10.40;7.63;;;;;;;;;;5032208;28;20383;-49
2021/07/28 02:00:00;;;;;;;10.37;8.17;;;;;;;;;;5031920;28;20432;-48
2021/07/28 02:02:34;;;;;;;10.70;8.33;;;;;;;;;;5032246;28;20860;-50
2021/07/28 02:05:00;;;;;;;8.90;8.00;;;;;;;;;;5032299;28;20459;-49
2021/07/28 02:07:26;;;;;;;10.57;8.60;;;;;;;;;;5032118;28;20399;-48
2021/07/28 02:09:52;;;;;;;13.00;8.53;;;;;;;;;;5031642;28;20503;-50
2021/07/28 02:12:18;;;;;;;9.40;8.50;;;;;;;;;;5031979;28;20446;-48
2021/07/28 02:14:44;;;;;;;11.60;8.37;;;;;;;;;;5032004;28;20883;-48
2021/07/28 02:17:10;;;;;;;9.00;7.97;;;;;;;;;;5031897;28;20378;-49
2021/07/28 02:19:36;;;;;;;13.13;8.63;;;;;;;;;;5031706;28;20407;-48
2021/07/28 02:22:02;;;;;;;9.30;8.00;;;;;;;;;;5031743;28;20389;-48
2021/07/28 02:24:28;;;;;;;10.40;8.80;;;;;;;;;;5031617;28;20944;-48
2021/07/28 02:26:54;;;;;;;9.50;8.13;;;;;;;;;;5031587;28;20404;-48
2021/07/28 02:29:20;;;;;;;14.67;9.33;;;;;;;;;;5031725;28;20401;-50
2021/07/28 02:31:46;;;;;;;13.30;9.33;;;;;;;;;;5031292;28;20407;-48
2021/07/28 02:34:12;;;;;;;11.00;8.43;;;;;;;;;;5031593;28;20411;-48
2021/07/28 02:36:38;;;;;;;11.00;8.50;;;;;;;;;;5031528;28;20721;-48
2021/07/28 02:39:04;;;;;;;9.30;8.00;;;;;;;;;;5031485;28;20858;-48
2021/07/28 02:41:30;;;;;;;9.87;7.60;;;;;;;;;;5031535;28;20413;-48
2021/07/28 02:43:56;;;;;;;12.17;8.40;;;;;;;;;;5031406;28;20808;-48
2021/07/28 02:46:22;;;;;;;10.23;9.13;;;;;;;;;;5031571;28;20400;-48
2021/07/28 02:48:48;;;;;;;10.67;8.67;;;;;;;;;;5031401;28;20375;-49
2021/07/28 02:51:14;;;;;;;15.07;9.53;;;;;;;;;;5031022;28;20939;-48
2021/07/28 02:53:40;;;;;;;11.53;8.60;;;;;;;;;;5031276;28;20432;-48
2021/07/28 02:56:06;;;;;;;10.27;8.97;;;;;;;;;;5031774;28;20742;-48
2021/07/28 02:58:32;;;;;;;10.20;9.13;;;;;;;;;;5031635;28;20394;-48
2021/07/28 03:00:58;;;;;;;11.23;9.23;;;;;;;;;;5031151;28;20450;-49
2021/07/28 03:03:24;;;;;;;13.43;8.90;;;;;;;;;;5031317;28;20853;-48
2021/07/28 03:05:50;;;;;;;10.67;9.57;;;;;;;;;;5031893;28;20400;-49
2021/07/28 03:08:17;;;;;;;10.53;9.00;;;;;;;;;;5031306;28;20400;-48
2021/07/28 03:10:43;;;;;;;11.60;9.10;;;;;;;;;;5030887;28;20942;-48
2021/07/28 03:13:09;;;;;;;11.93;9.20;;;;;;;;;;5031201;28;20416;-48
2021/07/28 03:15:35;;;;;;;14.33;9.83;;;;;;;;;;5031083;28;20465;-48
2021/07/28 03:18:01;;;;;;;12.53;9.33;;;;;;;;;;5030980;28;20387;-48
2021/07/28 03:20:27;;;;;;;11.43;9.93;;;;;;;;;;5030540;28;20406;-48
2021/07/28 03:22:53;;;;;;;15.17;10.17;;;;;;;;;;5030799;28;20906;-48
2021/07/28 03:25:19;;;;;;;11.67;9.70;;;;;;;;;;5030848;28;20402;-48
2021/07/28 03:27:45;;;;;;;11.27;10.10;;;;;;;;;;5031053;28;20377;-48
2021/07/28 03:30:11;;;;;;;14.67;9.70;;;;;;;;;;5030473;28;20401;-48
2021/07/28 03:32:37;;;;;;;12.83;9.77;;;;;;;;;;5030735;28;20469;-48
2021/07/28 03:35:04;;;;;;;11.53;9.73;;;;;;;;;;5030803;28;20411;-48
2021/07/28 03:37:30;;;;;;;12.80;10.10;;;;;;;;;;5030178;28;20403;-48
2021/07/28 03:40:02;;;;;;;15.10;9.80;;;;;;;;;;5030290;28;20401;-48
2021/07/28 03:42:29;;;;;;;11.73;9.97;;;;;;;;;;5030830;28;20430;-48
2021/07/28 03:44:55;;;;;;;12.40;10.33;;;;;;;;;;5030420;28;20432;-49
2021/07/28 03:47:21;;;;;;;11.33;10.10;;;;;;;;;;5030594;28;20405;-49
2021/07/28 03:49:47;;;;;;;10.77;9.73;;;;;;;;;;5030182;28;20396;-48
2021/07/28 03:52:13;;;;;;;15.93;11.20;;;;;;;;;;5030478;28;20598;-48
2021/07/28 03:54:39;;;;;;;12.97;10.60;;;;;;;;;;5030440;28;20405;-49
2021/07/28 03:57:05;;;;;;;12.20;10.13;;;;;;;;;;5030450;28;20381;-48
2021/07/28 03:59:31;;;;;;;12.10;9.90;;;;;;;;;;5030414;28;20474;-48
2021/07/28 04:01:57;;;;;;;13.30;10.00;;;;;;;;;;5030306;28;20438;-49
2021/07/28 04:04:23;;;;;;;15.93;10.23;;;;;;;;;;5030254;28;20459;-48
2021/07/28 04:06:49;;;;;;;13.97;10.03;;;;;;;;;;5030281;28;20715;-48
2021/07/28 04:09:15;;;;;;;13.23;10.13;;;;;;;;;;5030303;28;20394;-48
2021/07/28 04:11:40;;;;;;;11.90;10.70;;;;;;;;;;5030046;28;20783;-48
2021/07/28 04:14:06;;;;;;;17.33;12.20;;;;;;;;;;5030616;28;20409;-48
2021/07/28 04:16:32;;;;;;;15.83;10.60;;;;;;;;;;5030339;28;20403;-49
2021/07/28 04:18:58;;;;;;;11.30;9.87;;;;;;;;;;5030287;28;20412;-49
2021/07/28 04:21:24;;;;;;;10.80;9.70;;;;;;;;;;5029802;28;20397;-49
2021/07/28 04:23:50;;;;;;;14.87;10.33;;;;;;;;;;5030078;28;20463;-50
2021/07/28 04:26:16;;;;;;;12.63;10.63;;;;;;;;;;5030542;28;20383;-48
2021/07/28 04:28:42;;;;;;;13.20;10.53;;;;;;;;;;5030346;28;20810;-48
2021/07/28 04:31:08;;;;;;;12.27;9.80;;;;;;;;;;5030539;28;20796;-50
2021/07/28 04:33:34;;;;;;;13.57;11.80;;;;;;;;;;5030578;28;20778;-49
2021/07/28 04:36:00;;;;;;;16.73;10.70;;;;;;;;;;5030049;28;20383;-49
2021/07/28 04:38:26;;;;;;;12.00;9.93;;;;;;;;;;5030088;28;20449;-49
2021/07/28 04:40:52;;;;;;;11.60;10.03;;;;;;;;;;5029962;28;20427;-49
2021/07/28 04:43:18;;;;;;;12.83;10.10;;;;;;;;;;5030171;28;20514;-49
2021/07/28 04:45:44;;;;;;;12.63;10.53;;;;;;;;;;5030055;28;20404;-49
2021/07/28 04:48:10;;;;;;;11.63;10.43;;;;;;;;;;5030425;28;20424;-48
2021/07/28 04:50:36;;;;;;;12.40;10.47;;;;;;;;;;5033069;28;20403;-49
2021/07/28 04:53:03;;;;;;;12.07;9.80;;;;;;;;;;5033695;28;20420;-48
2021/07/28 04:55:28;;;;;;;11.13;9.93;;;;;;;;;;5033502;28;20376;-49
2021/07/28 04:57:54;;;;;;;9.57;8.57;;;;;;;;;;5033737;28;20375;-49
2021/07/28 05:00:21;;;;;;;11.70;10.50;;;;;;;;;;5033109;28;20467;-49
2021/07/28 05:02:46;;;;;;;13.47;10.43;;;;;;;;;;5033301;28;20643;-49
2021/07/28 05:05:12;;;;;;;11.20;10.10;;;;;;;;;;5033189;28;21050;-48
2021/07/28 05:07:38;;;;;;;11.50;9.83;;;;;;;;;;5033246;28;20907;-49
2021/07/28 05:10:05;;;;;;;12.27;9.73;;;;;;;;;;5033125;28;20421;-49
2021/07/28 05:12:30;;;;;;;16.23;12.47;;;;;;;;;;5033201;28;20373;-49
2021/07/28 05:14:57;;;;;;;11.07;9.73;;;;;;;;;;5033278;28;20408;-48
2021/07/28 05:17:24;;;;;;;11.20;10.00;;;;;;;;;;5033179;28;20413;-49
2021/07/28 05:19:50;;;;;;;10.83;9.70;;;;;;;;;;5032675;28;20412;-49
2021/07/28 05:22:16;;;;;;;12.87;10.10;;;;;;;;;;5033200;28;20408;-51
2021/07/28 05:24:42;;;;;;;11.63;10.40;;;;;;;;;;5033007;28;20560;-50
2021/07/28 05:27:08;;;;;;;11.70;9.50;;;;;;;;;;5033078;28;20406;-49
2021/07/28 05:29:34;;;;;;;14.23;9.90;;;;;;;;;;5032713;28;20428;-49
2021/07/28 05:32:00;;;;;;;11.90;8.80;;;;;;;;;;5032696;28;20871;-47
2021/07/28 05:34:26;;;;;;;10.33;9.33;;;;;;;;;;5033217;28;20881;-48
2021/07/28 05:36:54;;;;;;;9.90;7.87;;;;;;;;;;5033013;28;20410;-47
2021/07/28 05:39:20;;;;;;;9.83;8.77;;;;;;;;;;5033075;28;20504;-47
2021/07/28 05:41:46;;;;;;;11.20;9.07;;;;;;;;;;5032377;28;20448;-47
2021/07/28 05:44:12;;;;;;;11.47;9.00;;;;;;;;;;5032553;28;20460;-46
2021/07/28 05:46:38;;;;;;;10.73;8.70;;;;;;;;;;5032527;28;20374;-47
2021/07/28 05:49:04;;;;;;;10.27;9.10;;;;;;;;;;5032475;28;20629;-46
2021/07/28 05:51:30;;;;;;;9.63;8.73;;;;;;;;;;5032030;28;20400;-47
2021/07/28 05:53:56;;;;;;;10.80;8.73;;;;;;;;;;5032374;28;20406;-47
2021/07/28 05:56:22;;;;;;;9.10;7.80;;;;;;;;;;5032319;28;20871;-47
2021/07/28 05:58:48;;;;;;;14.30;8.93;;;;;;;;;;5032343;28;20381;-46
2021/07/28 06:01:13;;;;;;;18.17;8.43;;;;;;;;;;5031500;28;20400;-47
2021/07/28 06:03:39;;;;;;;9.97;8.20;;;;;;;;;;5032071;28;20480;-47
2021/07/28 06:06:05;;;;;;;20.83;8.40;;;;;;;;;;5032137;28;20881;-46
2021/07/28 06:08:31;;;;;;;10.87;8.20;;;;;;;;;;5032250;28;20409;-47
2021/07/28 06:10:58;;;;;;;12.07;8.23;;;;;;;;;;5031863;28;20932;-47
2021/07/28 06:13:24;;;;;;;12.30;10.03;;;;;;;;;;5032091;28;20408;-47
2021/07/28 06:15:51;;;;;;;10.83;9.07;;;;;;;;;;5032010;28;20453;-47
2021/07/28 06:18:17;;;;;;;10.13;8.80;;;;;;;;;;5031910;28;20381;-46
2021/07/28 06:20:43;;;;;;;14.33;10.97;;;;;;;;;;5031659;28;20487;-46
2021/07/28 06:23:09;;;;;;;11.60;9.30;;;;;;;;;;5031946;28;20838;-48
2021/07/28 06:25:35;;;;;;;9.07;7.87;;;;;;;;;;5031807;28;20884;-47
2021/07/28 06:28:01;;;;;;;8.77;7.83;;;;;;;;;;5031815;28;20432;-47
2021/07/28 06:30:27;;;;;;;11.27;9.70;;;;;;;;;;5031343;28;20944;-47
2021/07/28 06:32:53;;;;;;;9.37;8.37;;;;;;;;;;5031611;28;20950;-46
2021/07/28 09:23:38;;;;;;;9.50;7.83;;;;;;;;;;5030717;28;20585;-46
2021/07/28 09:26:06;;;;;;;9.17;7.83;;;;;;;;;;5033062;28;20874;-45
2021/07/28 09:28:32;;;;;;;10.17;7.67;;;;;;;;;;5032736;28;20395;-46
2021/07/28 09:30:58;;;;;;;6.43;5.40;;;;;;;;;;5032501;28;20917;-46
2021/07/28 09:33:24;;;;;;;9.80;6.40;;;;;;;;;;5032778;28;20409;-46
2021/07/28 09:35:50;;;;;;;6.20;5.60;;;;;;;;;;5032350;28;20929;-46
2021/07/28 09:38:32;;;;;;;5.50;5.00;;;;;;;;;;5032626;28;20409;-46
2021/07/28 09:41:18;;;;;;;6.50;5.20;;;;;;;;;;5032373;28;20431;-46
2021/07/28 09:43:44;;;;;;;5.23;4.73;;;;;;;;;;5022265;28;21080;-47
2021/07/28 09:46:28;;;;;;;4.73;4.33;;;;;;;;;;5032557;28;20409;-47
2021/07/28 09:48:55;;;;;;;4.60;4.20;;;;;;;;;;5032559;28;20940;-47
2021/07/28 09:51:22;;;;;;;5.93;4.30;;;;;;;;;;5032318;28;20421;-46
2021/07/28 09:53:58;;;;;;;4.67;4.17;;;;;;;;;;5032659;28;20399;-46
2021/07/28 09:56:29;;;;;;;4.93;4.50;;;;;;;;;;5032518;28;20398;-47
2021/07/28 09:58:58;;;;;;;5.80;4.27;;;;;;;;;;5032232;28;20406;-47
2021/07/28 10:01:25;;;;;;;4.63;4.23;;;;;;;;;;5032197;28;20805;-46
2021/07/28 10:03:51;;;;;;;5.53;5.03;;;;;;;;;;5032085;28;20539;-46
2021/07/28 10:06:17;;;;;;;6.30;5.00;;;;;;;;;;5032249;28;20832;-47
2021/07/28 10:08:44;;;;;;;6.47;4.73;;;;;;;;;;5032142;28;20398;-48
2021/07/28 10:11:13;;;;;;;4.70;4.30;;;;;;;;;;5031816;28;20556;-47
2021/07/28 10:13:39;;;;;;;5.47;4.10;;;;;;;;;;5031854;28;20410;-47
2021/07/28 10:16:06;;;;;;;5.73;4.40;;;;;;;;;;5031965;28;20457;-49
2021/07/28 10:18:31;;;;;;;5.50;4.50;;;;;;;;;;5031909;28;20402;-47
2021/07/28 10:20:58;;;;;;;7.63;4.40;;;;;;;;;;5031560;28;20422;-49
2021/07/28 10:23:24;;;;;;;7.10;4.60;;;;;;;;;;5031838;28;20458;-49
2021/07/28 10:25:50;;;;;;;4.10;3.70;;;;;;;;;;5031717;28;20489;-48
2021/07/28 10:28:17;;;;;;;4.23;3.83;;;;;;;;;;5031678;28;20514;-48
2021/07/28 10:30:45;;;;;;;3.90;3.50;;;;;;;;;;5032056;28;20442;-48
2021/07/28 10:33:24;;;;;;;5.50;3.83;;;;;;;;;;5031695;28;20490;-49
2021/07/28 10:35:50;;;;;;;11.53;5.03;;;;;;;;;;5031534;28;20498;-46
2021/07/28 10:38:20;;;;;;;8.00;4.10;;;;;;;;;;5031602;28;20488;-47
2021/07/28 10:40:51;;;;;;;4.07;3.77;;;;;;;;;;5031125;28;20632;-48
2021/07/28 10:43:17;;;;;;;5.10;3.63;;;;;;;;;;5031686;28;20406;-47
2021/07/28 10:45:53;;;;;;;3.60;3.27;;;;;;;;;;5031419;28;20486;-49
2021/07/28 10:48:37;;;;;;;4.37;4.00;;;;;;;;;;5031369;28;21189;-47
2021/07/28 10:51:03;;;;;;;5.77;3.70;;;;;;;;;;5030810;28;20798;-47
2021/07/28 10:53:48;;;;;;;4.60;4.20;;;;;;;;;;5031434;28;20902;-47
2021/07/28 10:56:14;;;;;;;5.93;4.33;;;;;;;;;;5031192;28;20406;-47
2021/07/28 10:58:40;;;;;;;5.50;4.20;;;;;;;;;;5031136;28;20414;-46
2021/07/28 11:01:06;;;;;;;5.10;4.60;;;;;;;;;;5030743;28;20537;-47
2021/07/28 11:03:33;;;;;;;4.43;3.77;;;;;;;;;;5030718;28;20492;-47
2021/07/28 11:06:13;;;;;;;6.33;3.70;;;;;;;;;;5031265;28;20489;-47
2021/07/28 11:08:39;;;;;;;5.67;4.10;;;;;;;;;;5030980;28;20410;-47
2021/07/28 11:11:04;;;;;;;6.77;3.90;;;;;;;;;;5030741;28;20426;-47
2021/07/28 11:13:34;;;;;;;5.33;4.30;;;;;;;;;;5030907;28;20899;-47
2021/07/28 11:16:04;;;;;;;4.20;3.60;;;;;;;;;;5030747;28;20410;-48
2021/07/28 11:18:31;;;;;;;6.50;3.43;;;;;;;;;;5031077;28;20434;-47
2021/07/28 11:21:05;;;;;;;4.33;4.03;;;;;;;;;;5030444;28;20832;-47
2021/07/28 11:23:31;;;;;;;4.33;3.90;;;;;;;;;;5030796;28;20796;-46
2021/07/28 11:25:58;;;;;;;5.80;3.90;;;;;;;;;;5031252;28;20481;-48
2021/07/28 11:28:25;;;;;;;4.77;3.67;;;;;;;;;;5030681;28;20175;-48
2021/07/28 11:30:57;;;;;;;6.97;3.73;;;;;;;;;;5030520;28;20853;-48
2021/07/28 11:33:23;;;;;;;5.50;3.80;;;;;;;;;;5030701;28;20874;-47
2021/07/28 11:35:51;;;;;;;4.03;3.70;;;;;;;;;;5030716;28;20669;-48
2021/07/28 11:38:18;;;;;;;3.47;3.17;;;;;;;;;;5030807;28;20433;-48
2021/07/28 11:40:48;;;;;;;5.00;3.70;;;;;;;;;;5030689;28;20758;-47
2021/07/28 11:43:27;;;;;;;5.17;2.70;;;;;;;;;;5030476;28;20437;-47
2021/07/28 11:45:54;;;;;;;5.00;3.53;;;;;;;;;;5030659;28;20428;-47
2021/07/28 11:48:30;;;;;;;4.23;3.40;;;;;;;;;;5030626;28;20406;-48
2021/07/28 11:50:56;;;;;;;3.20;2.90;;;;;;;;;;5024984;28;20422;-47
2021/07/28 11:53:26;;;;;;;2.50;2.03;;;;;;;;;;5030136;28;20433;-47
2021/07/28 11:55:53;;;;;;;2.27;2.07;;;;;;;;;;5030343;28;20398;-46
2021/07/28 11:58:19;;;;;;;2.70;2.40;;;;;;;;;;5032337;28;20405;-47
2021/07/28 12:00:49;;;;;;;3.93;2.60;;;;;;;;;;5034230;28;20425;-47
2021/07/28 12:03:29;;;;;;;10.20;2.57;;;;;;;;;;5034689;28;20433;-46
2021/07/28 12:05:58;;;;;;;3.27;2.50;;;;;;;;;;5034566;28;20779;-47
2021/07/28 12:08:28;;;;;;;3.87;2.33;;;;;;;;;;5034643;28;20771;-47
2021/07/28 12:11:04;;;;;;;4.60;2.47;;;;;;;;;;5034578;28;20467;-47
2021/07/28 12:13:40;;;;;;;4.40;2.20;;;;;;;;;;5034435;28;20881;-46
2021/07/28 12:16:06;;;;;;;2.70;2.50;;;;;;;;;;5034442;28;20496;-49
2021/07/28 12:18:52;;;;;;;2.73;2.53;;;;;;;;;;5034324;28;20413;-47
2021/07/28 12:21:18;;;;;;;2.47;2.23;;;;;;;;;;5034016;28;20471;-49
2021/07/28 12:23:54;;;;;;;2.47;2.23;;;;;;;;;;5034219;28;20441;-49
2021/07/28 12:26:38;;;;;;;2.37;2.17;;;;;;;;;;5033813;28;20777;-48
2021/07/28 12:29:04;;;;;;;3.70;2.40;;;;;;;;;;5033691;28;20392;-49
2021/07/28 12:31:30;;;;;;;6.43;4.17;;;;;;;;;;5033612;28;20410;-49
2021/07/28 12:34:16;;;;;;;2.60;2.40;;;;;;;;;;5034018;28;20390;-49
2021/07/28 12:36:42;;;;;;;2.97;2.60;;;;;;;;;;5033779;28;20444;-49
2021/07/28 12:39:08;;;;;;;7.60;2.60;;;;;;;;;;5033240;28;20446;-49
2021/07/28 12:41:34;;;;;;;4.60;2.50;;;;;;;;;;5033231;28;20418;-49
2021/07/28 12:44:00;;;;;;;3.07;2.87;;;;;;;;;;5033661;28;20445;-48
2021/07/28 12:46:26;;;;;;;2.90;2.70;;;;;;;;;;5033636;28;20410;-49
2021/07/28 12:48:52;;;;;;;3.23;2.93;;;;;;;;;;5033579;28;20437;-48
2021/07/28 12:51:21;;;;;;;2.77;2.57;;;;;;;;;;5033118;28;20425;-49
2021/07/28 12:53:48;;;;;;;6.23;2.50;;;;;;;;;;5033520;28;20406;-49
2021/07/28 12:56:14;;;;;;;3.90;2.70;;;;;;;;;;5033567;28;20413;-49
2021/07/28 12:58:40;;;;;;;2.90;2.20;;;;;;;;;;5033414;28;20413;-49
2021/07/28 13:01:06;;;;;;;2.53;2.33;;;;;;;;;;5033372;28;20430;-50
2021/07/28 13:03:36;;;;;;;2.50;2.30;;;;;;;;;;5033276;28;20465;-49
2021/07/28 13:06:07;;;;;;;4.43;2.70;;;;;;;;;;5033739;28;20433;-49
2021/07/28 13:08:33;;;;;;;3.00;2.70;;;;;;;;;;5032861;28;20413;-48
2021/07/28 13:10:59;;;;;;;2.70;2.50;;;;;;;;;;5031900;28;20430;-48
2021/07/28 13:13:25;;;;;;;4.63;3.13;;;;;;;;;;5033248;28;20402;-48
2021/07/28 13:15:51;;;;;;;2.50;2.30;;;;;;;;;;5033188;28;20398;-49
2021/07/28 13:18:17;;;;;;;4.50;2.60;;;;;;;;;;5033172;28;20402;-49
2021/07/28 13:20:44;;;;;;;3.47;2.23;;;;;;;;;;5032777;28;20836;-49
2021/07/28 13:23:11;;;;;;;4.83;2.37;;;;;;;;;;5032898;28;20970;-49
2021/07/28 13:25:37;;;;;;;2.47;2.27;;;;;;;;;;5033052;28;20406;-50
2021/07/28 13:28:03;;;;;;;2.57;2.37;;;;;;;;;;5032829;28;20477;-48
2021/07/28 13:30:29;;;;;;;2.63;2.40;;;;;;;;;;5032727;28;20423;-49
2021/07/28 13:32:56;;;;;;;3.13;2.13;;;;;;;;;;5032034;28;20957;-48
2021/07/28 13:35:22;;;;;;;2.20;2.07;;;;;;;;;;5032317;28;20394;-48
2021/07/28 13:37:48;;;;;;;2.40;2.20;;;;;;;;;;5031859;28;20410;-48
2021/07/28 13:40:14;;;;;;;5.23;2.90;;;;;;;;;;5032283;28;20451;-49
2021/07/28 13:42:41;;;;;;;2.33;2.13;;;;;;;;;;5032648;28;20429;-50
2021/07/28 13:45:08;;;;;;;9.10;2.50;;;;;;;;;;5032539;28;20457;-49
2021/07/28 13:47:35;;;;;;;6.40;2.90;;;;;;;;;;5032547;28;20402;-50
2021/07/28 13:50:01;;;;;;;12.60;2.67;;;;;;;;;;5031984;28;20793;-51
2021/07/28 13:52:27;;;;;;;4.73;2.23;;;;;;;;;;5032629;28;20410;-51
2021/07/28 13:54:53;;;;;;;3.80;2.27;;;;;;;;;;5032329;28;20404;-51
2021/07/28 13:57:21;;;;;;;1.90;1.80;;;;;;;;;;5030617;28;20409;-51
2021/07/28 13:59:48;;;;;;;9.17;2.50;;;;;;;;;;5031583;28;20402;-50
2021/07/28 14:02:14;;;;;;;4.30;2.20;;;;;;;;;;5032120;28;20406;-49
2021/07/28 14:04:41;;;;;;;2.20;1.87;;;;;;;;;;5032140;28;20454;-49
2021/07/28 14:07:08;;;;;;;8.13;2.37;;;;;;;;;;5032138;28;20484;-48
2021/07/28 14:09:34;;;;;;;2.60;2.33;;;;;;;;;;5031966;28;20457;-49
2021/07/28 14:12:02;;;;;;;2.83;2.60;;;;;;;;;;5031888;28;20414;-49
2021/07/28 14:14:29;;;;;;;5.03;2.00;;;;;;;;;;5031654;28;20413;-49
2021/07/28 14:16:55;;;;;;;2.23;2.10;;;;;;;;;;5033383;28;20432;-48
2021/07/28 14:19:21;;;;;;;7.67;2.40;;;;;;;;;;5031753;28;20886;-48
2021/07/28 14:21:48;;;;;;;6.63;2.53;;;;;;;;;;5031571;28;20414;-48
2021/07/28 14:24:14;;;;;;;2.23;2.03;;;;;;;;;;5031709;28;20454;-48
2021/07/28 14:26:41;;;;;;;2.20;2.10;;;;;;;;;;5031716;28;20409;-49
2021/07/28 14:29:07;;;;;;;5.53;2.10;;;;;;;;;;5031661;28;20815;-48
2021/07/28 14:31:33;;;;;;;3.00;2.60;;;;;;;;;;5031346;28;20480;-49
2021/07/28 14:33:59;;;;;;;2.67;2.07;;;;;;;;;;5031419;28;20406;-49
2021/07/28 14:36:25;;;;;;;2.47;1.83;;;;;;;;;;5031675;28;20448;-50
2021/07/28 14:38:51;;;;;;;3.30;2.37;;;;;;;;;;5031482;28;20410;-49
2021/07/28 14:41:21;;;;;;;7.53;2.00;;;;;;;;;;5031185;28;20979;-49
2021/07/28 14:43:47;;;;;;;3.10;2.00;;;;;;;;;;5031696;28;20481;-49
2021/07/28 14:46:13;;;;;;;6.23;2.20;;;;;;;;;;5031928;28;20410;-50
2021/07/28 14:48:39;;;;;;;2.70;2.50;;;;;;;;;;5031249;28;20493;-49
2021/07/28 14:51:07;;;;;;;5.43;2.33;;;;;;;;;;5031327;28;20628;-48
2021/07/28 14:53:33;;;;;;;2.77;2.50;;;;;;;;;;5031297;28;20410;-49
2021/07/28 14:55:59;;;;;;;4.60;2.20;;;;;;;;;;5029495;28;20776;-51
2021/07/28 14:58:25;;;;;;;2.70;2.40;;;;;;;;;;5031251;28;20476;-48
2021/07/28 15:00:51;;;;;;;2.97;2.77;;;;;;;;;;5030748;28;20523;-48
2021/07/28 15:03:17;;;;;;;6.50;3.13;;;;;;;;;;5029779;28;20456;-49
2021/07/28 15:05:43;;;;;;;3.00;2.10;;;;;;;;;;5032045;28;20772;-49
2021/07/28 15:08:09;;;;;;;4.00;2.10;;;;;;;;;;5031082;28;20890;-49
2021/07/28 15:10:35;;;;;;;4.03;2.30;;;;;;;;;;5030646;28;20509;-48
2021/07/28 15:13:01;;;;;;;3.20;2.47;;;;;;;;;;5031033;28;20402;-48
2021/07/28 15:15:27;;;;;;;3.07;2.20;;;;;;;;;;5031043;28;20405;-48
2021/07/28 15:17:53;;;;;;;2.90;2.13;;;;;;;;;;5030941;28;20435;-48
2021/07/28 15:20:19;;;;;;;8.77;2.20;;;;;;;;;;5030455;28;20447;-48
2021/07/28 15:22:45;;;;;;;3.80;2.40;;;;;;;;;;5030856;28;20406;-48
2021/07/28 15:25:11;;;;;;;2.63;2.20;;;;;;;;;;5030759;28;20456;-49
2021/07/28 15:27:37;;;;;;;3.13;2.20;;;;;;;;;;5030839;28;20409;-49
2021/07/28 15:30:03;;;;;;;5.43;2.40;;;;;;;;;;5030473;28;20420;-48
2021/07/28 15:32:29;;;;;;;4.40;2.43;;;;;;;;;;5030082;28;20424;-48
2021/07/28 15:34:55;;;;;;;6.93;3.17;;;;;;;;;;5030892;28;20861;-48
2021/07/28 15:37:21;;;;;;;10.87;2.70;;;;;;;;;;5030775;28;20816;-48
2021/07/28 15:40:06;;;;;;;4.07;2.60;;;;;;;;;;5030348;28;20762;-48
2021/07/28 15:42:34;;;;;;;11.07;2.80;;;;;;;;;;5030725;28;20411;-48
2021/07/28 15:45:00;;;;;;;5.53;2.93;;;;;;;;;;5030840;28;20460;-48
2021/07/28 15:47:26;;;;;;;5.00;2.90;;;;;;;;;;5030769;28;20404;-49
2021/07/28 15:49:52;;;;;;;2.80;2.50;;;;;;;;;;5030244;28;20878;-48
2021/07/28 15:52:18;;;;;;;3.40;2.73;;;;;;;;;;5030577;28;20395;-48
2021/07/28 15:54:44;;;;;;;5.17;2.80;;;;;;;;;;5028987;28;20779;-48
2021/07/28 15:57:09;;;;;;;7.93;2.50;;;;;;;;;;5030481;28;20466;-48
2021/07/28 15:59:35;;;;;;;3.07;2.77;;;;;;;;;;5030418;28;20644;-48
2021/07/28 16:02:03;;;;;;;5.10;3.00;;;;;;;;;;5030583;28;20413;-48
2021/07/28 16:04:30;;;;;;;5.23;2.20;;;;;;;;;;5030629;28;20462;-48
2021/07/28 16:06:56;;;;;;;2.97;2.70;;;;;;;;;;5030737;28;20948;-48
2021/07/28 16:09:22;;;;;;;7.67;2.87;;;;;;;;;;5030545;28;20402;-48
2021/07/28 16:11:48;;;;;;;2.73;2.43;;;;;;;;;;5029964;28;20969;-47
2021/07/28 16:14:35;;;;;;;9.63;1.93;;;;;;;;;;5030431;28;20394;-48
2021/07/28 16:17:03;;;;;;;10.37;2.40;;;;;;;;;;5030724;28;20497;-48
2021/07/28 16:19:31;;;;;;;3.13;2.40;;;;;;;;;;5030352;28;20409;-48
2021/07/28 16:21:57;;;;;;;3.30;2.00;;;;;;;;;;5030033;28;20430;-48
2021/07/28 16:24:30;;;;;;;2.30;2.10;;;;;;;;;;5030041;28;20464;-48
2021/07/28 16:26:56;;;;;;;4.50;1.97;;;;;;;;;;5030562;28;20410;-48
2021/07/28 16:29:22;;;;;;;1.73;1.63;;;;;;;;;;5030504;28;20800;-48
2021/07/28 16:31:48;;;;;;;4.53;2.30;;;;;;;;;;5030554;28;20433;-48
2021/07/28 16:34:14;;;;;;;5.33;2.33;;;;;;;;;;5030230;28;20406;-50
2021/07/28 16:36:40;;;;;;;4.17;2.10;;;;;;;;;;5030079;28;20463;-48
2021/07/28 16:39:06;;;;;;;3.10;2.00;;;;;;;;;;5030027;28;20426;-48
2021/07/28 16:41:32;;;;;;;3.60;2.43;;;;;;;;;;5029736;28;20950;-48
2021/07/28 16:43:58;;;;;;;6.53;2.27;;;;;;;;;;5031149;28;20985;-49
2021/07/28 16:46:24;;;;;;;3.90;1.97;;;;;;;;;;5033692;28;20892;-48
2021/07/28 16:48:53;;;;;;;1.60;1.50;;;;;;;;;;5033646;28;20882;-49
2021/07/28 16:51:19;;;;;;;4.37;1.80;;;;;;;;;;5033113;28;20495;-48
2021/07/28 16:53:45;;;;;;;3.37;2.30;;;;;;;;;;5033443;28;20878;-48
2021/07/28 16:56:11;;;;;;;3.63;1.90;;;;;;;;;;5033516;28;20902;-48
2021/07/28 16:58:37;;;;;;;4.50;2.03;;;;;;;;;;5033395;28;20445;-48
2021/07/28 17:01:03;;;;;;;3.93;2.00;;;;;;;;;;5033498;28;20438;-48
2021/07/28 17:03:29;;;;;;;2.90;2.33;;;;;;;;;;5033182;28;20429;-50
2021/07/28 17:05:55;;;;;;;2.60;1.90;;;;;;;;;;5033153;28;20402;-49
2021/07/28 17:08:21;;;;;;;3.40;1.70;;;;;;;;;;5033521;28;20410;-48
2021/07/28 17:10:47;;;;;;;3.90;1.90;;;;;;;;;;5032977;28;20426;-48
2021/07/28 17:13:13;;;;;;;5.10;2.50;;;;;;;;;;5033172;28;20509;-48
2021/07/28 17:15:39;;;;;;;3.40;2.17;;;;;;;;;;5033045;28;20410;-48
2021/07/28 17:18:05;;;;;;;2.93;2.33;;;;;;;;;;5033100;28;20406;-48
2021/07/28 17:20:31;;;;;;;2.17;1.97;;;;;;;;;;5032667;28;20422;-48
2021/07/28 17:22:57;;;;;;;1.90;1.80;;;;;;;;;;5033074;28;20919;-48
2021/07/28 17:25:23;;;;;;;2.30;2.20;;;;;;;;;;5033044;28;20480;-48
2021/07/28 17:27:49;;;;;;;4.60;1.90;;;;;;;;;;5032909;28;20428;-49